Time;durP1;ratioP1;P1;durP2;ratioP2;P2;SDS_P1;SDS_P2;PMS_P1;PMS_P2;Temp;Humidity;BMP_temperature;BMP_pressure;BME280_temperature;BME280_humidity;BME280_pressure;Samples;Min_cycle;Max_cycle;Signal;HPM_P1;HPM_P2
2021/04/30 00:00:26;;;;;;;19.60;11.45;;;;;;;17.66;65.21;98118.09;4198475;84;28653;-82
2021/04/30 00:06:30;;;;;;;20.85;11.60;;;;;;;17.75;63.61;98128.49;4191515;83;28555;-81
2021/04/30 00:12:32;;;;;;;25.10;13.00;;;;;;;17.44;65.27;98147.28;4180172;84;28554;-82
2021/04/30 00:18:35;;;;;;;22.58;12.00;;;;;;;17.12;69.42;98146.44;4170507;83;28632;-81
2021/04/30 00:24:37;;;;;;;22.85;11.80;;;;;;;18.17;60.72;98140.77;4199390;84;28590;-82
2021/04/30 00:30:40;;;;;;;22.65;12.75;;;;;;;18.35;58.65;98129.52;4175241;84;28706;-82
2021/04/30 00:36:42;;;;;;;23.35;11.80;;;;;;;18.21;61.22;98140.98;4187432;84;28584;-81
2021/04/30 00:42:44;;;;;;;22.00;11.60;;;;;;;17.70;64.97;98137.58;4257407;82;28607;-81
2021/04/30 00:48:46;;;;;;;23.27;11.88;;;;;;;17.95;62.81;98146.34;4266719;82;28683;-81
2021/04/30 00:54:48;;;;;;;22.87;11.08;;;;;;;18.08;61.14;98160.27;4268176;82;28706;-81
2021/04/30 01:00:52;;;;;;;22.27;12.03;;;;;;;18.28;60.55;98181.38;4243131;82;28628;-81
2021/04/30 01:06:54;;;;;;;20.43;11.73;;;;;;;18.48;60.03;98204.08;4253059;82;28612;-81
2021/04/30 01:12:56;;;;;;;24.10;13.38;;;;;;;18.09;63.43;98234.77;4283719;82;28582;-81
2021/04/30 01:18:58;;;;;;;27.62;14.98;;;;;;;18.03;74.16;98231.88;4275936;82;28614;-80
2021/04/30 01:25:00;;;;;;;27.87;14.07;;;;;;;18.18;80.98;98234.88;4281440;82;28605;-81
2021/04/30 01:31:02;;;;;;;28.07;15.13;;;;;;;18.00;97.86;98237.91;4280212;82;28614;-80
2021/04/30 01:37:05;;;;;;;29.20;15.65;;;;;;;18.16;94.56;98245.25;4226517;83;28542;-80
2021/04/30 01:43:18;;;;;;;29.55;14.68;;;;;;;18.41;95.50;98254.02;4310606;81;28578;-81
2021/04/30 01:49:20;;;;;;;26.82;14.53;;;;;;;18.27;96.14;98241.77;4323353;81;28581;-81
2021/04/30 01:55:29;;;;;;;26.90;14.95;;;;;;;18.07;100.00;98236.17;4310959;81;28586;-81
2021/04/30 02:01:31;;;;;;;24.87;13.80;;;;;;;17.93;100.00;98236.94;4361810;81;28972;-80
2021/04/30 02:07:33;;;;;;;23.87;12.80;;;;;;;18.14;98.84;98222.17;4151639;84;28643;-80
2021/04/30 02:13:35;;;;;;;22.17;11.93;;;;;;;18.33;98.42;98225.61;4160089;85;28610;-83
2021/04/30 02:19:38;;;;;;;22.73;12.07;;;;;;;18.25;100.00;98225.77;4194782;83;28597;-81
2021/04/30 02:25:41;;;;;;;18.00;10.38;;;;;;;18.15;100.00;98230.05;4167170;84;28653;-81
2021/04/30 02:31:43;;;;;;;17.62;9.35;;;;;;;18.34;100.00;98241.39;4218406;83;28651;-82
2021/04/30 02:37:46;;;;;;;18.60;8.75;;;;;;;18.16;98.99;98245.80;4176989;83;28558;-81
2021/04/30 02:43:48;;;;;;;13.88;9.03;;;;;;;18.13;100.00;98239.06;4165830;84;28569;-81
2021/04/30 02:49:52;;;;;;;18.00;8.90;;;;;;;18.52;97.98;98245.90;4207048;84;28614;-81
2021/04/30 02:55:54;;;;;;;16.35;9.00;;;;;;;18.68;91.87;98230.63;4324569;81;28575;-81
2021/04/30 03:01:56;;;;;;;15.13;8.28;;;;;;;18.61;95.20;98243.30;4343039;81;28591;-80
2021/04/30 03:07:59;;;;;;;14.75;7.72;;;;;;;18.76;93.75;98254.42;4322671;81;28572;-79
2021/04/30 03:14:01;;;;;;;13.10;7.60;;;;;;;18.81;92.35;98245.34;4330912;81;28658;-80
2021/04/30 03:20:04;;;;;;;15.30;8.75;;;;;;;18.87;88.83;98251.48;4330863;81;28657;-79
2021/04/30 03:26:06;;;;;;;14.03;7.83;;;;;;;18.63;97.88;98262.02;4338717;81;28567;-80
2021/04/30 03:32:09;;;;;;;12.93;6.92;;;;;;;18.77;94.21;98262.84;4337553;81;28665;-79
2021/04/30 03:38:12;;;;;;;14.25;8.35;;;;;;;18.62;99.96;98278.11;4335046;81;28622;-81
2021/04/30 03:44:14;;;;;;;14.45;8.65;;;;;;;18.78;100.00;98276.70;4326294;81;28627;-81
2021/04/30 03:50:16;;;;;;;14.93;8.58;;;;;;;18.60;100.00;98278.44;4187620;84;28584;-81
2021/04/30 03:56:18;;;;;;;13.95;8.40;;;;;;;18.34;100.00;98285.72;4175074;83;28577;-80
2021/04/30 04:02:20;;;;;;;14.65;8.23;;;;;;;18.45;100.00;98292.33;4186321;83;28649;-80
2021/04/30 04:08:23;;;;;;;16.05;9.68;;;;;;;18.56;100.00;98296.46;4205003;84;28610;-80
2021/04/30 04:14:25;;;;;;;19.15;10.68;;;;;;;18.59;100.00;98308.67;4193318;84;28574;-80
2021/04/30 04:20:27;;;;;;;18.37;9.50;;;;;;;18.97;99.80;98304.91;4178761;84;28599;-80
2021/04/30 04:26:29;;;;;;;15.00;8.43;;;;;;;18.72;99.20;98311.94;4172084;84;28581;-82
2021/04/30 04:32:31;;;;;;;15.65;8.40;;;;;;;18.53;100.00;98318.85;4191273;84;28570;-81
2021/04/30 04:38:33;;;;;;;15.60;8.43;;;;;;;18.88;99.77;98329.34;4242745;82;28616;-79
2021/04/30 04:44:36;;;;;;;14.35;8.08;;;;;;;19.05;95.94;98336.92;4246925;82;28615;-81
2021/04/30 04:50:43;;;;;;;17.07;7.50;;;;;;;18.72;100.00;98340.52;4310192;81;28587;-80
2021/04/30 04:56:48;;;;;;;10.85;6.60;;;;;;;19.19;91.91;98343.71;4313278;81;28670;-79
2021/04/30 05:02:50;;;;;;;13.78;7.58;;;;;;;19.16;93.59;98350.57;4331180;81;28647;-79
2021/04/30 05:08:53;;;;;;;12.78;6.75;;;;;;;19.25;89.12;98361.55;4341716;80;28572;-80
2021/04/30 05:14:55;;;;;;;11.45;6.83;;;;;;;18.94;94.74;98361.61;4345608;81;28602;-79
2021/04/30 05:20:58;;;;;;;13.60;6.60;;;;;;;18.85;100.00;98366.69;4332056;81;28597;-80
2021/04/30 05:27:00;;;;;;;15.40;7.05;;;;;;;18.86;97.07;98369.13;4335024;80;28576;-79
2021/04/30 05:33:02;;;;;;;17.52;7.40;;;;;;;19.09;94.61;98376.05;4323382;81;28569;-80
2021/04/30 05:39:05;;;;;;;20.70;6.87;;;;;;;19.43;90.12;98384.89;4180214;84;28609;-80
2021/04/30 05:45:09;;;;;;;19.60;7.90;;;;;;;19.82;88.54;98392.20;4167633;83;28581;-80
2021/04/30 05:51:12;;;;;;;21.10;6.83;;;;;;;19.88;87.48;98391.77;4208311;84;28648;-80
2021/04/30 05:57:14;;;;;;;10.58;5.65;;;;;;;20.01;88.05;98393.44;4196693;84;28708;-81
2021/04/30 06:03:16;;;;;;;9.98;5.42;;;;;;;19.86;88.67;98403.55;4191577;83;28637;-81
2021/04/30 06:09:19;;;;;;;15.72;6.03;;;;;;;19.37;94.07;98410.09;4176489;84;28689;-80
2021/04/30 06:15:21;;;;;;;10.78;6.25;;;;;;;19.82;88.16;98416.20;4197340;84;28596;-81
2021/04/30 06:21:23;;;;;;;14.15;7.85;;;;;;;20.10;84.82;98415.32;4186509;84;28627;-81
2021/04/30 06:27:25;;;;;;;13.53;7.45;;;;;;;20.51;79.62;98419.77;4171423;84;28617;-81
2021/04/30 06:33:27;;;;;;;14.28;9.00;;;;;;;20.52;80.68;98430.93;4205880;84;28606;-80
2021/04/30 06:39:30;;;;;;;16.27;9.00;;;;;;;20.10;81.78;98432.52;4196974;83;28593;-80
2021/04/30 06:45:32;;;;;;;15.05;8.38;;;;;;;20.41;79.83;98452.78;4242039;83;28596;-79
2021/04/30 06:51:35;;;;;;;16.48;8.73;;;;;;;19.91;79.11;98453.09;4263527;83;28663;-80
2021/04/30 06:57:39;;;;;;;14.05;8.33;;;;;;;20.33;75.69;98452.41;4232825;83;28614;-81
2021/04/30 07:03:41;;;;;;;16.70;9.30;;;;;;;20.52;70.36;98456.08;4274298;83;28600;-81
2021/04/30 07:09:43;;;;;;;12.88;8.48;;;;;;;21.11;64.59;98457.83;4224626;83;28575;-81
2021/04/30 07:15:46;;;;;;;17.90;9.33;;;;;;;20.66;66.95;98455.97;4258497;83;28618;-80
2021/04/30 07:21:48;;;;;;;19.10;10.32;;;;;;;21.02;64.29;98466.80;4252453;83;28563;-81
2021/04/30 07:27:50;;;;;;;14.98;9.53;;;;;;;20.62;64.70;98468.11;4225126;83;28600;-79
2021/04/30 07:33:52;;;;;;;17.77;11.00;;;;;;;20.98;60.32;98454.89;4229538;83;28651;-80
2021/04/30 07:39:55;;;;;;;19.62;10.38;;;;;;;20.62;57.31;98465.38;4228508;82;28588;-80
2021/04/30 07:45:59;;;;;;;18.12;9.95;;;;;;;21.69;54.60;98461.39;4313371;81;28594;-80
2021/04/30 07:52:00;;;;;;;16.20;9.43;;;;;;;21.52;53.01;98467.61;4313145;81;28687;-81
2021/04/30 07:58:04;;;;;;;15.08;9.18;;;;;;;21.63;53.00;98448.98;4317573;80;28583;-80
2021/04/30 08:04:06;;;;;;;13.62;9.05;;;;;;;21.39;50.61;98463.08;4323706;81;28564;-80
2021/04/30 08:10:11;;;;;;;13.32;7.85;;;;;;;21.49;50.36;98468.80;4200005;84;28659;-80
2021/04/30 08:16:13;;;;;;;15.75;9.08;;;;;;;21.54;51.22;98472.77;4198450;84;28571;-80
2021/04/30 08:22:16;;;;;;;11.73;7.58;;;;;;;20.91;54.46;98481.85;4199091;84;28626;-80
2021/04/30 08:28:17;;;;;;;11.12;7.62;;;;;;;21.51;52.68;98496.66;4174097;84;28674;-80
2021/04/30 08:34:20;;;;;;;12.95;8.00;;;;;;;21.55;48.27;98497.05;4197596;84;28680;-81
2021/04/30 08:40:23;;;;;;;12.43;7.03;;;;;;;21.21;48.91;98494.45;4338132;81;28576;-80
2021/04/30 08:46:25;;;;;;;10.75;6.95;;;;;;;22.37;47.48;98497.66;4337132;80;28576;-81
2021/04/30 08:52:27;;;;;;;10.80;7.05;;;;;;;22.53;46.98;98498.79;4161273;84;28586;-81
2021/04/30 08:58:32;;;;;;;11.10;5.72;;;;;;;23.45;46.19;98494.59;4172108;84;28607;-83
2021/04/30 09:04:34;;;;;;;9.75;5.97;;;;;;;23.09;45.06;98505.44;4202036;84;28573;-82
2021/04/30 09:10:41;;;;;;;8.38;5.30;;;;;;;22.82;42.38;98515.69;4175404;84;28587;-84
2021/04/30 09:17:09;;;;;;;9.13;5.72;;;;;;;23.13;41.47;98524.22;4189666;84;28581;-81
2021/04/30 09:23:44;;;;;;;9.25;5.55;;;;;;;22.59;43.91;98519.18;4319585;80;28631;-82
2021/04/30 09:29:46;;;;;;;8.28;5.70;;;;;;;21.92;43.82;98522.03;4243309;82;28615;-82
2021/04/30 09:35:55;;;;;;;12.45;5.95;;;;;;;22.82;43.68;98511.58;4216707;82;28595;-82
2021/04/30 09:42:13;;;;;;;11.68;6.67;;;;;;;22.96;43.84;98518.20;4256643;81;28579;-82
2021/04/30 09:48:15;;;;;;;11.78;7.20;;;;;;;22.79;43.51;98514.95;4263471;81;28672;-84
2021/04/30 09:54:29;;;;;;;9.33;6.62;;;;;;;22.90;43.69;98516.78;4361428;81;28567;-89
2021/04/30 10:00:32;;;;;;;9.80;6.30;;;;;;;22.32;43.07;98519.17;4366107;81;28607;-89
2021/04/30 10:06:34;;;;;;;11.20;6.50;;;;;;;22.42;42.32;98522.13;4338652;81;28601;-90
2021/04/30 10:12:45;;;;;;;10.88;5.67;;;;;;;22.54;41.74;98513.30;4335225;81;28591;-88
2021/04/30 10:18:47;;;;;;;6.92;4.97;;;;;;;23.85;40.70;98500.83;4214178;84;28546;-88
2021/04/30 10:24:59;;;;;;;9.85;4.05;;;;;;;22.64;39.38;98512.97;4239939;82;28587;-88
2021/04/30 10:31:12;;;;;;;5.00;3.87;;;;;;;23.61;35.77;98507.18;4248983;82;28620;-86
2021/04/30 10:37:23;;;;;;;5.83;4.00;;;;;;;22.37;35.72;98520.94;4228597;83;28609;-86
2021/04/30 10:43:26;;;;;;;4.92;4.08;;;;;;;22.76;36.60;98497.24;4307932;81;28615;-86
2021/04/30 10:49:28;;;;;;;6.20;3.98;;;;;;;22.76;36.07;98496.42;4323795;81;28645;-86
2021/04/30 10:55:39;;;;;;;6.37;4.45;;;;;;;21.95;36.00;98498.94;4315733;81;28624;-86
2021/04/30 11:01:47;;;;;;;5.83;4.28;;;;;;;22.18;36.68;98486.47;4303481;81;28576;-85
2021/04/30 11:07:53;;;;;;;4.85;3.65;;;;;;;22.00;35.83;98478.83;4136378;85;28615;-85
2021/04/30 11:14:24;;;;;;;4.37;3.00;;;;;;;22.61;34.34;98479.38;4159707;84;28583;-86
2021/04/30 11:20:33;;;;;;;4.25;2.62;;;;;;;22.33;32.56;98485.73;4159453;84;28576;-86
2021/04/30 11:26:37;;;;;;;3.85;2.60;;;;;;;23.51;32.29;98470.52;4184355;83;28598;-85
2021/04/30 11:32:42;;;;;;;5.05;2.37;;;;;;;22.07;33.95;98491.45;4193525;84;28634;-86
2021/04/30 11:39:02;;;;;;;;;;;;;;;;;;;;;
2021/04/30 11:45:05;;;;;;;3.00;2.45;;;;;;;21.64;33.96;98477.13;4594623;76;85311;-87
2021/04/30 11:51:10;;;;;;;4.08;2.92;;;;;;;23.02;31.94;98487.34;4485047;79;28672;-86
2021/04/30 11:57:13;;;;;;;3.92;2.98;;;;;;;22.47;32.18;98486.93;4478639;79;28560;-86
2021/04/30 12:03:15;;;;;;;3.75;2.80;;;;;;;22.99;33.14;98461.37;4485749;78;28561;-85
2021/04/30 12:09:21;;;;;;;3.65;2.30;;;;;;;22.75;31.74;98482.48;4508853;78;28625;-86
2021/04/30 12:15:31;;;;;;;6.17;3.00;;;;;;;22.41;32.58;98472.05;4496708;78;28608;-86
2021/04/30 12:21:42;;;;;;;4.35;2.40;;;;;;;23.22;31.27;98466.05;4449538;77;86098;-86
2021/04/30 12:27:45;;;;;;;5.17;2.80;;;;;;;23.56;31.74;98469.53;4247859;81;28684;-89
2021/04/30 12:33:49;;;;;;;5.45;3.42;;;;;;;23.59;32.22;98466.11;4234738;81;28635;-86
2021/04/30 12:39:52;;;;;;;4.72;2.83;;;;;;;23.00;31.81;98475.88;4317635;80;28602;-81
2021/04/30 12:45:56;;;;;;;5.58;2.92;;;;;;;23.14;31.00;98464.14;4342829;81;28603;-81
2021/04/30 12:51:58;;;;;;;4.62;2.60;;;;;;;22.92;31.46;98453.67;4240806;81;28597;-82
2021/04/30 12:58:19;;;;;;;6.15;2.70;;;;;;;23.52;31.82;98441.95;4268331;81;28692;-83
2021/04/30 13:04:24;;;;;;;3.87;2.62;;;;;;;23.38;30.96;98439.45;4252459;81;28593;-84
2021/04/30 13:10:27;;;;;;;4.05;2.92;;;;;;;23.28;30.33;98441.20;4309358;81;28598;-84
2021/04/30 13:16:48;;;;;;;3.75;2.60;;;;;;;22.19;30.30;98460.70;4329862;81;28576;-84
2021/04/30 13:23:06;;;;;;;3.77;2.70;;;;;;;23.45;29.07;98442.48;4237291;81;28601;-82
2021/04/30 13:29:19;;;;;;;3.67;2.60;;;;;;;23.90;30.50;98421.02;4237758;81;28574;-84
2021/04/30 13:35:27;;;;;;;5.42;3.15;;;;;;;23.86;28.83;98429.70;4320075;80;28563;-85
2021/04/30 13:41:36;;;;;;;4.90;2.95;;;;;;;23.44;29.51;98416.74;4240855;81;28605;-84
2021/04/30 13:47:45;;;;;;;6.37;2.90;;;;;;;23.16;29.60;98422.12;4287903;80;28658;-84
2021/04/30 13:53:49;;;;;;;4.62;2.37;;;;;;;23.57;29.99;98406.08;4252270;83;28650;-84
2021/04/30 13:59:51;;;;;;;3.12;2.08;;;;;;;23.33;28.61;98402.63;4308359;80;28629;-86
2021/04/30 14:05:54;;;;;;;6.08;2.77;;;;;;;23.71;28.43;98404.45;4263068;81;28596;-85
2021/04/30 14:11:57;;;;;;;6.62;2.27;;;;;;;23.33;28.16;98410.86;4227846;83;28610;-85
2021/04/30 14:17:59;;;;;;;4.37;2.50;;;;;;;23.25;28.57;98409.72;4245737;83;28607;-86
2021/04/30 14:24:04;;;;;;;6.25;2.85;;;;;;;23.51;29.11;98411.55;4273067;81;28585;-85
2021/04/30 14:30:07;;;;;;;4.90;2.72;;;;;;;22.91;29.13;98404.66;4250280;81;28603;-85
2021/04/30 14:36:09;;;;;;;3.25;2.00;;;;;;;23.30;28.93;98397.78;4277124;83;28605;-86
2021/04/30 14:42:11;;;;;;;2.87;2.08;;;;;;;23.72;27.74;98402.52;4312822;82;28593;-84
2021/04/30 14:48:12;;;;;;;4.00;2.72;;;;;;;23.59;27.48;98398.34;4281444;82;28619;-85
2021/04/30 14:54:15;;;;;;;4.03;2.90;;;;;;;23.42;28.26;98397.08;4243244;82;28589;-84
2021/04/30 15:00:18;;;;;;;5.03;2.33;;;;;;;23.73;28.22;98402.75;4381401;81;28594;-85
2021/04/30 15:06:21;;;;;;;5.05;2.50;;;;;;;23.79;28.76;98395.34;4381080;81;28585;-86
2021/04/30 15:12:23;;;;;;;3.83;2.60;;;;;;;23.95;28.32;98401.03;4381563;81;28581;-84
2021/04/30 15:18:25;;;;;;;3.55;2.95;;;;;;;24.20;27.77;98395.65;4382837;81;28611;-84
2021/04/30 15:24:28;;;;;;;5.50;2.58;;;;;;;23.15;28.15;98397.20;4399620;80;28674;-85
2021/04/30 15:30:31;;;;;;;3.12;2.37;;;;;;;23.04;28.83;98399.51;4339409;81;28584;-84
2021/04/30 15:36:33;;;;;;;2.65;2.00;;;;;;;23.67;27.91;98393.92;4245237;84;28594;-84
2021/04/30 15:42:37;;;;;;;3.27;2.40;;;;;;;23.35;26.91;98387.42;4349129;81;28579;-85
2021/04/30 15:48:39;;;;;;;5.75;2.67;;;;;;;23.25;27.50;98383.67;4539894;78;28599;-82
2021/04/30 15:54:41;;;;;;;5.05;2.58;;;;;;;23.40;27.62;98385.06;4332645;81;28634;-86
2021/04/30 16:00:43;;;;;;;3.27;2.50;;;;;;;23.98;26.74;98378.16;4278727;81;28598;-85
2021/04/30 16:06:45;;;;;;;4.70;2.40;;;;;;;24.06;26.58;98376.75;4292985;82;28646;-82
2021/04/30 16:12:47;;;;;;;5.95;2.95;;;;;;;23.74;27.44;98379.10;4335303;81;28604;-81
2021/04/30 16:18:49;;;;;;;5.20;3.05;;;;;;;23.69;27.46;98380.66;4302662;81;28643;-84
2021/04/30 16:24:51;;;;;;;3.42;2.35;;;;;;;23.56;27.58;98382.53;4300373;81;28647;-83
2021/04/30 16:30:53;;;;;;;4.00;2.65;;;;;;;24.04;27.27;98380.38;4227540;83;28596;-84
2021/04/30 16:36:55;;;;;;;4.85;2.77;;;;;;;24.14;27.04;98383.29;4309011;82;28591;-86
2021/04/30 16:42:57;;;;;;;4.45;2.70;;;;;;;24.08;27.21;98375.83;4239063;81;28599;-85
2021/04/30 16:49:02;;;;;;;6.03;2.85;;;;;;;24.03;27.51;98370.51;4328272;82;28597;-83
2021/04/30 16:55:06;;;;;;;5.87;2.65;;;;;;;23.97;27.78;98371.06;4233093;82;28608;-81
2021/04/30 17:01:08;;;;;;;5.05;3.20;;;;;;;23.93;27.85;98377.79;4325870;82;28573;-85
2021/04/30 17:07:11;;;;;;;3.83;2.60;;;;;;;23.32;28.16;98383.98;4244578;82;28552;-83
2021/04/30 17:13:13;;;;;;;4.62;3.30;;;;;;;23.77;28.27;98402.30;4351232;80;28565;-84
2021/04/30 17:19:15;;;;;;;7.72;3.08;;;;;;;23.21;28.62;98414.27;4262635;83;28652;-82
2021/04/30 17:25:17;;;;;;;7.90;3.00;;;;;;;23.63;28.47;98399.82;4247558;83;28575;-84
2021/04/30 17:31:19;;;;;;;4.72;2.77;;;;;;;23.67;29.60;98400.19;4222588;81;28639;-82
2021/04/30 17:37:21;;;;;;;4.05;2.62;;;;;;;23.45;29.38;98408.19;4308738;82;28651;-82
2021/04/30 17:43:23;;;;;;;5.75;2.67;;;;;;;23.19;30.31;98411.06;4335609;81;28644;-83
2021/04/30 17:49:27;;;;;;;5.15;2.40;;;;;;;22.92;31.24;98419.41;4258090;83;28600;-83
2021/04/30 17:55:29;;;;;;;4.90;2.35;;;;;;;22.66;31.51;98429.09;4266509;83;28639;-80
2021/04/30 18:01:32;;;;;;;7.05;3.10;;;;;;;22.29;32.11;98439.84;4313461;82;28610;-84
2021/04/30 18:07:37;;;;;;;4.12;2.50;;;;;;;21.93;33.37;98451.94;4373413;81;28659;-83
2021/04/30 18:13:39;;;;;;;8.65;2.90;;;;;;;21.58;33.96;98462.25;4238652;82;28662;-83
2021/04/30 18:19:41;;;;;;;4.15;2.58;;;;;;;21.16;35.07;98464.53;4237604;82;28656;-87
2021/04/30 18:25:44;;;;;;;4.15;2.83;;;;;;;20.97;35.65;98486.62;4252455;83;28672;-85
2021/04/30 18:31:46;;;;;;;7.70;4.35;;;;;;;20.80;35.40;98489.49;4335919;82;28614;-84
2021/04/30 18:37:52;;;;;;;6.70;4.00;;;;;;;20.47;35.84;98496.02;4251859;83;28578;-82
2021/04/30 18:43:55;;;;;;;5.40;3.85;;;;;;;20.16;36.60;98498.12;4308291;80;28665;-83
2021/04/30 18:49:57;;;;;;;9.23;4.62;;;;;;;20.28;36.40;98503.58;4259793;81;28633;-80
2021/04/30 18:56:01;;;;;;;7.40;4.92;;;;;;;20.06;36.41;98514.72;4296986;82;28589;-82
2021/04/30 19:02:03;;;;;;;10.43;4.58;;;;;;;20.12;36.76;98529.05;4251373;83;28622;-80
2021/04/30 19:08:05;;;;;;;7.90;4.95;;;;;;;19.38;40.92;98528.90;4262175;81;28617;-80
2021/04/30 19:14:08;;;;;;;10.82;5.20;;;;;;;19.50;39.57;98536.59;4337172;82;28593;-80
2021/04/30 19:20:12;;;;;;;11.63;5.85;;;;;;;19.23;40.33;98536.81;4234474;83;28693;-81
2021/04/30 19:26:17;;;;;;;12.15;5.92;;;;;;;19.30;39.67;98544.05;4221940;84;28621;-81
2021/04/30 19:32:19;;;;;;;15.10;6.72;;;;;;;19.06;39.96;98544.20;4216390;83;28598;-79
2021/04/30 19:38:23;;;;;;;11.12;5.50;;;;;;;19.17;39.67;98547.00;4179443;84;28695;-80
2021/04/30 19:44:25;;;;;;;10.15;5.47;;;;;;;18.91;41.65;98546.61;4188693;84;28672;-81
2021/04/30 19:50:28;;;;;;;12.35;6.78;;;;;;;18.87;40.79;98549.69;4260191;82;28624;-81
2021/04/30 19:56:30;;;;;;;9.03;4.60;;;;;;;19.03;40.57;98563.31;4269998;82;28613;-81
2021/04/30 20:02:32;;;;;;;12.03;5.12;;;;;;;18.92;42.38;98556.39;4236802;82;28606;-81
2021/04/30 20:08:35;;;;;;;19.00;8.30;;;;;;;18.60;45.14;98571.61;4291098;82;29018;-82
2021/04/30 20:14:39;;;;;;;17.40;7.92;;;;;;;17.94;46.14;98585.81;4201002;84;28617;-80
2021/04/30 20:20:41;;;;;;;13.08;8.25;;;;;;;18.22;44.10;98590.12;4215789;81;28644;-81
2021/04/30 20:26:44;;;;;;;17.52;8.20;;;;;;;18.55;42.29;98580.66;4312611;82;28619;-81
2021/04/30 20:32:48;;;;;;;13.95;8.45;;;;;;;18.13;42.85;98582.34;4255993;81;28661;-81
2021/04/30 20:38:50;;;;;;;12.85;8.15;;;;;;;18.67;41.18;98582.38;4317226;80;28558;-81
2021/04/30 20:44:52;;;;;;;10.90;6.80;;;;;;;18.08;41.30;98595.46;4244745;83;28573;-81
2021/04/30 20:50:54;;;;;;;12.60;7.40;;;;;;;17.88;41.57;98591.86;4313448;80;28595;-82
2021/04/30 20:56:56;;;;;;;12.18;7.08;;;;;;;18.77;40.22;98595.58;4246719;82;28617;-81
2021/04/30 21:02:59;;;;;;;11.45;7.22;;;;;;;18.03;40.94;98605.03;4324161;80;28649;-82
2021/04/30 21:09:03;;;;;;;15.03;7.45;;;;;;;17.74;41.49;98603.98;4314661;80;28631;-81
2021/04/30 21:15:11;;;;;;;11.30;6.87;;;;;;;17.56;41.84;98606.91;4261790;83;28574;-82
2021/04/30 21:21:13;;;;;;;12.80;7.50;;;;;;;17.80;41.27;98598.77;4330260;81;28575;-82
2021/04/30 21:27:17;;;;;;;12.10;6.47;;;;;;;17.61;42.00;98610.12;4288495;81;28626;-81
2021/04/30 21:33:19;;;;;;;12.18;6.40;;;;;;;17.64;41.86;98617.16;4287420;81;28577;-84
2021/04/30 21:39:21;;;;;;;12.65;7.28;;;;;;;17.35;42.21;98622.63;4307983;80;28582;-81
2021/04/30 21:51:39;;;;;;;14.38;9.18;;;;;;;17.29;42.90;98642.23;4439589;77;86240;-82
2021/04/30 21:57:41;;;;;;;15.28;8.68;;;;;;;16.50;45.22;98653.88;4386748;78;28673;-82
2021/04/30 22:03:43;;;;;;;13.35;8.75;;;;;;;16.71;44.80;98662.19;4384536;80;28571;-82
2021/04/30 22:09:46;;;;;;;17.25;9.30;;;;;;;16.58;45.73;98668.22;4394440;78;28642;-81
2021/04/30 22:15:50;;;;;;;15.13;10.43;;;;;;;16.64;45.98;98674.42;4316842;80;28649;-81
2021/04/30 22:21:53;;;;;;;20.02;13.75;;;;;;;15.89;48.33;98680.94;4338830;81;28565;-81
2021/04/30 22:27:55;;;;;;;19.95;11.80;;;;;;;16.09;48.27;98684.72;4275628;81;28580;-82
2021/04/30 22:33:57;;;;;;;19.85;9.40;;;;;;;16.15;48.22;98683.06;4289014;81;28620;-82
2021/04/30 22:40:00;;;;;;;13.62;9.55;;;;;;;16.09;48.36;98682.00;4272999;81;28601;-82
2021/04/30 22:46:02;;;;;;;17.12;10.28;;;;;;;15.72;50.10;98685.32;4261727;81;28593;-82
2021/04/30 22:52:05;;;;;;;15.23;9.58;;;;;;;15.63;50.81;98687.78;4242069;83;28673;-82
2021/04/30 22:58:07;;;;;;;14.38;9.85;;;;;;;15.73;50.39;98678.81;4258638;83;28652;-82
2021/04/30 23:04:09;;;;;;;14.28;10.00;;;;;;;16.30;48.13;98675.97;4258319;83;28742;-82
2021/04/30 23:10:12;;;;;;;14.40;9.93;;;;;;;15.98;49.30;98676.61;4285062;83;28628;-82
2021/04/30 23:16:17;;;;;;;15.95;10.70;;;;;;;16.03;49.53;98677.14;4258918;83;28615;-82
2021/04/30 23:22:19;;;;;;;16.00;10.68;;;;;;;16.07;49.19;98682.83;4262386;83;28599;-83
2021/04/30 23:28:21;;;;;;;13.30;9.65;;;;;;;15.44;51.93;98673.44;4238851;83;28584;-83
2021/04/30 23:34:23;;;;;;;15.50;10.25;;;;;;;15.77;51.20;98674.45;4262243;83;28619;-82
2021/04/30 23:40:25;;;;;;;15.58;10.58;;;;;;;15.67;51.63;98678.54;4246083;83;28635;-82
2021/04/30 23:46:28;;;;;;;16.45;10.75;;;;;;;15.32;53.00;98692.66;4249909;83;28581;-83
2021/04/30 23:52:30;;;;;;;18.80;11.60;;;;;;;15.24;53.18;98685.63;4295494;81;28578;-82
2021/04/30 23:58:32;;;;;;;17.60;11.28;;;;;;;14.74;56.42;98687.46;4317589;80;28716;-82
